sensor_id;sensor_type;location;lat;lon;timestamp;temperature;humidity
4431;DHT22;2228;48.140;11.488;2022-07-12T00:01:27;16.50;99.90
4431;DHT22;2228;48.140;11.488;2022-07-12T00:03:55;16.40;99.90
4431;DHT22;2228;48.140;11.488;2022-07-12T00:06:22;16.40;99.90
4431;DHT22;2228;48.140;11.488;2022-07-12T00:08:49;16.40;99.90
4431;DHT22;2228;48.140;11.488;2022-07-12T00:11:16;16.40;99.90
4431;DHT22;2228;48.140;11.488;2022-07-12T00:13:43;16.50;99.90
4431;DHT22;2228;48.140;11.488;2022-07-12T00:16:10;16.40;99.90
4431;DHT22;2228;48.140;11.488;2022-07-12T00:18:37;16.40;99.90
4431;DHT22;2228;48.140;11.488;2022-07-12T00:21:05;16.30;99.90
4431;DHT22;2228;48.140;11.488;2022-07-12T00:23:33;16.30;99.90
4431;DHT22;2228;48.140;11.488;2022-07-12T00:25:59;16.20;99.90
4431;DHT22;2228;48.140;11.488;2022-07-12T00:28:29;16.30;99.90
4431;DHT22;2228;48.140;11.488;2022-07-12T00:30:56;16.30;99.90
4431;DHT22;2228;48.140;11.488;2022-07-12T00:33:23;16.20;99.90
4431;DHT22;2228;48.140;11.488;2022-07-12T00:35:50;16.10;99.90
4431;DHT22;2228;48.140;11.488;2022-07-12T00:38:19;16.20;99.90
4431;DHT22;2228;48.140;11.488;2022-07-12T00:40:46;16.30;99.90
4431;DHT22;2228;48.140;11.488;2022-07-12T00:43:12;16.30;99.90
4431;DHT22;2228;48.140;11.488;2022-07-12T00:45:39;16.30;99.90
4431;DHT22;2228;48.140;11.488;2022-07-12T00:48:06;16.40;99.90
4431;DHT22;2228;48.140;11.488;2022-07-12T00:50:34;16.30;99.90
4431;DHT22;2228;48.140;11.488;2022-07-12T00:53:00;16.40;99.90
4431;DHT22;2228;48.140;11.488;2022-07-12T00:55:30;16.50;99.90
4431;DHT22;2228;48.140;11.488;2022-07-12T00:57:57;16.50;99.90
4431;DHT22;2228;48.140;11.488;2022-07-12T01:00:25;16.50;99.90
4431;DHT22;2228;48.140;11.488;2022-07-12T01:02:54;16.60;99.90
4431;DHT22;2228;48.140;11.488;2022-07-12T01:05:21;16.50;99.90
4431;DHT22;2228;48.140;11.488;2022-07-12T01:07:49;16.40;99.90
4431;DHT22;2228;48.140;11.488;2022-07-12T01:10:17;16.30;99.90
4431;DHT22;2228;48.140;11.488;2022-07-12T01:12:45;16.20;99.90
4431;DHT22;2228;48.140;11.488;2022-07-12T01:15:12;16.00;99.90
4431;DHT22;2228;48.140;11.488;2022-07-12T01:17:40;15.90;99.90
4431;DHT22;2228;48.140;11.488;2022-07-12T01:20:08;15.80;99.90
4431;DHT22;2228;48.140;11.488;2022-07-12T01:22:36;15.60;99.90
4431;DHT22;2228;48.140;11.488;2022-07-12T01:25:08;15.50;99.90
4431;DHT22;2228;48.140;11.488;2022-07-12T01:27:37;15.50;99.90
4431;DHT22;2228;48.140;11.488;2022-07-12T01:30:05;15.30;99.90
4431;DHT22;2228;48.140;11.488;2022-07-12T01:32:33;15.30;99.90
4431;DHT22;2228;48.140;11.488;2022-07-12T01:35:01;15.30;99.90
4431;DHT22;2228;48.140;11.488;2022-07-12T01:37:31;15.20;99.90
4431;DHT22;2228;48.140;11.488;2022-07-12T01:39:59;15.10;99.90
4431;DHT22;2228;48.140;11.488;2022-07-12T01:42:29;15.00;99.90
4431;DHT22;2228;48.140;11.488;2022-07-12T01:44:57;14.90;99.90
4431;DHT22;2228;48.140;11.488;2022-07-12T01:47:25;14.80;99.90
4431;DHT22;2228;48.140;11.488;2022-07-12T01:49:52;14.70;99.90
4431;DHT22;2228;48.140;11.488;2022-07-12T01:52:20;14.70;99.90
4431;DHT22;2228;48.140;11.488;2022-07-12T01:54:47;14.60;99.90
4431;DHT22;2228;48.140;11.488;2022-07-12T01:57:14;14.50;99.90
4431;DHT22;2228;48.140;11.488;2022-07-12T01:59:43;14.50;99.90
4431;DHT22;2228;48.140;11.488;2022-07-12T02:02:09;14.50;99.90
4431;DHT22;2228;48.140;11.488;2022-07-12T02:04:37;14.50;99.90
4431;DHT22;2228;48.140;11.488;2022-07-12T02:07:04;14.50;99.90
4431;DHT22;2228;48.140;11.488;2022-07-12T02:09:31;14.50;99.90
4431;DHT22;2228;48.140;11.488;2022-07-12T02:11:58;14.40;99.90
4431;DHT22;2228;48.140;11.488;2022-07-12T02:14:25;14.40;99.90
4431;DHT22;2228;48.140;11.488;2022-07-12T02:16:54;14.40;99.90
4431;DHT22;2228;48.140;11.488;2022-07-12T02:19:21;14.30;99.90
4431;DHT22;2228;48.140;11.488;2022-07-12T02:21:48;14.30;99.90
4431;DHT22;2228;48.140;11.488;2022-07-12T02:24:15;14.20;99.90
4431;DHT22;2228;48.140;11.488;2022-07-12T02:26:42;14.20;99.90
4431;DHT22;2228;48.140;11.488;2022-07-12T02:29:09;14.20;99.90
4431;DHT22;2228;48.140;11.488;2022-07-12T02:31:37;14.10;99.90
4431;DHT22;2228;48.140;11.488;2022-07-12T02:34:05;14.10;99.90
4431;DHT22;2228;48.140;11.488;2022-07-12T02:36:32;14.00;99.90
4431;DHT22;2228;48.140;11.488;2022-07-12T02:38:59;14.10;99.90
4431;DHT22;2228;48.140;11.488;2022-07-12T02:41:29;14.10;99.90
4431;DHT22;2228;48.140;11.488;2022-07-12T02:43:56;14.20;99.90
4431;DHT22;2228;48.140;11.488;2022-07-12T02:46:23;14.10;99.90
4431;DHT22;2228;48.140;11.488;2022-07-12T02:48:50;14.00;99.90
4431;DHT22;2228;48.140;11.488;2022-07-12T02:51:19;13.90;99.90
4431;DHT22;2228;48.140;11.488;2022-07-12T02:53:46;13.90;99.90
4431;DHT22;2228;48.140;11.488;2022-07-12T02:56:13;13.80;99.90
4431;DHT22;2228;48.140;11.488;2022-07-12T02:58:40;13.80;99.90
4431;DHT22;2228;48.140;11.488;2022-07-12T03:01:07;13.80;99.90
4431;DHT22;2228;48.140;11.488;2022-07-12T03:03:34;13.80;99.90
4431;DHT22;2228;48.140;11.488;2022-07-12T03:06:01;13.80;99.90
4431;DHT22;2228;48.140;11.488;2022-07-12T03:08:29;13.70;99.90
4431;DHT22;2228;48.140;11.488;2022-07-12T03:10:56;13.70;99.90
4431;DHT22;2228;48.140;11.488;2022-07-12T03:13:23;13.60;99.90
4431;DHT22;2228;48.140;11.488;2022-07-12T03:15:51;13.60;99.90
4431;DHT22;2228;48.140;11.488;2022-07-12T03:18:17;13.60;99.90
4431;DHT22;2228;48.140;11.488;2022-07-12T03:20:44;13.50;99.90
4431;DHT22;2228;48.140;11.488;2022-07-12T03:23:11;13.50;99.90
4431;DHT22;2228;48.140;11.488;2022-07-12T03:25:40;13.50;99.90
4431;DHT22;2228;48.140;11.488;2022-07-12T03:28:07;13.50;99.90
4431;DHT22;2228;48.140;11.488;2022-07-12T03:30:34;13.50;99.90
4431;DHT22;2228;48.140;11.488;2022-07-12T03:33:01;13.50;99.90
4431;DHT22;2228;48.140;11.488;2022-07-12T03:35:28;13.50;99.90
4431;DHT22;2228;48.140;11.488;2022-07-12T03:37:54;13.50;99.90
4431;DHT22;2228;48.140;11.488;2022-07-12T03:40:21;13.50;99.90
4431;DHT22;2228;48.140;11.488;2022-07-12T03:42:51;13.50;99.90
4431;DHT22;2228;48.140;11.488;2022-07-12T03:45:18;13.50;99.90
4431;DHT22;2228;48.140;11.488;2022-07-12T03:47:45;13.40;99.90
4431;DHT22;2228;48.140;11.488;2022-07-12T03:50:14;13.40;99.90
4431;DHT22;2228;48.140;11.488;2022-07-12T03:52:42;13.40;99.90
4431;DHT22;2228;48.140;11.488;2022-07-12T03:55:09;13.40;99.90
4431;DHT22;2228;48.140;11.488;2022-07-12T03:57:37;13.50;99.90
4431;DHT22;2228;48.140;11.488;2022-07-12T04:00:07;13.50;99.90
4431;DHT22;2228;48.140;11.488;2022-07-12T04:02:36;13.60;99.90
4431;DHT22;2228;48.140;11.488;2022-07-12T04:05:04;13.60;99.90
4431;DHT22;2228;48.140;11.488;2022-07-12T04:07:31;13.60;99.90
4431;DHT22;2228;48.140;11.488;2022-07-12T04:09:58;13.60;99.90
4431;DHT22;2228;48.140;11.488;2022-07-12T04:12:25;13.60;99.90
4431;DHT22;2228;48.140;11.488;2022-07-12T04:14:52;13.70;99.90
4431;DHT22;2228;48.140;11.488;2022-07-12T04:17:20;13.70;99.90
4431;DHT22;2228;48.140;11.488;2022-07-12T04:19:47;13.80;99.90
4431;DHT22;2228;48.140;11.488;2022-07-12T04:22:15;13.90;99.90
4431;DHT22;2228;48.140;11.488;2022-07-12T04:24:42;13.80;99.90
4431;DHT22;2228;48.140;11.488;2022-07-12T04:27:09;14.00;99.90
4431;DHT22;2228;48.140;11.488;2022-07-12T04:29:36;14.00;99.90
4431;DHT22;2228;48.140;11.488;2022-07-12T04:32:03;14.10;99.90
4431;DHT22;2228;48.140;11.488;2022-07-12T04:34:32;14.20;99.90
4431;DHT22;2228;48.140;11.488;2022-07-12T04:36:58;14.20;99.90
4431;DHT22;2228;48.140;11.488;2022-07-12T04:39:26;14.30;99.90
4431;DHT22;2228;48.140;11.488;2022-07-12T04:41:53;14.30;99.90
4431;DHT22;2228;48.140;11.488;2022-07-12T04:44:20;14.40;99.90
4431;DHT22;2228;48.140;11.488;2022-07-12T04:46:47;14.30;99.90
4431;DHT22;2228;48.140;11.488;2022-07-12T04:49:14;14.30;99.90
4431;DHT22;2228;48.140;11.488;2022-07-12T04:51:43;14.50;99.90
4431;DHT22;2228;48.140;11.488;2022-07-12T04:54:10;14.60;99.90
4431;DHT22;2228;48.140;11.488;2022-07-12T04:56:37;14.70;99.90
4431;DHT22;2228;48.140;11.488;2022-07-12T04:59:04;14.70;99.90
4431;DHT22;2228;48.140;11.488;2022-07-12T05:01:32;14.80;99.90
4431;DHT22;2228;48.140;11.488;2022-07-12T05:03:59;15.00;99.90
4431;DHT22;2228;48.140;11.488;2022-07-12T05:06:27;15.20;99.90
4431;DHT22;2228;48.140;11.488;2022-07-12T05:08:55;15.20;99.90
4431;DHT22;2228;48.140;11.488;2022-07-12T05:11:22;15.30;99.90
4431;DHT22;2228;48.140;11.488;2022-07-12T05:13:49;15.40;99.90
4431;DHT22;2228;48.140;11.488;2022-07-12T05:16:16;15.60;99.90
4431;DHT22;2228;48.140;11.488;2022-07-12T05:18:43;15.80;99.90
4431;DHT22;2228;48.140;11.488;2022-07-12T05:21:09;16.10;99.90
4431;DHT22;2228;48.140;11.488;2022-07-12T05:23:37;16.20;99.90
4431;DHT22;2228;48.140;11.488;2022-07-12T05:26:05;16.30;99.90
4431;DHT22;2228;48.140;11.488;2022-07-12T05:28:32;16.40;99.90
4431;DHT22;2228;48.140;11.488;2022-07-12T05:30:59;16.60;99.90
4431;DHT22;2228;48.140;11.488;2022-07-12T05:33:27;16.60;99.90
4431;DHT22;2228;48.140;11.488;2022-07-12T05:35:54;16.70;99.90
4431;DHT22;2228;48.140;11.488;2022-07-12T05:38:21;16.90;99.90
4431;DHT22;2228;48.140;11.488;2022-07-12T05:40:48;17.00;99.90
4431;DHT22;2228;48.140;11.488;2022-07-12T05:43:16;17.10;99.90
4431;DHT22;2228;48.140;11.488;2022-07-12T05:45:43;17.20;99.90
4431;DHT22;2228;48.140;11.488;2022-07-12T05:48:10;17.30;99.90
4431;DHT22;2228;48.140;11.488;2022-07-12T05:50:37;17.50;99.90
4431;DHT22;2228;48.140;11.488;2022-07-12T05:53:04;17.50;99.90
4431;DHT22;2228;48.140;11.488;2022-07-12T05:55:49;17.60;99.90
4431;DHT22;2228;48.140;11.488;2022-07-12T05:58:18;17.60;94.50
4431;DHT22;2228;48.140;11.488;2022-07-12T06:00:46;17.60;99.30
4431;DHT22;2228;48.140;11.488;2022-07-12T06:03:13;17.80;96.40
4431;DHT22;2228;48.140;11.488;2022-07-12T06:05:40;17.70;84.30
4431;DHT22;2228;48.140;11.488;2022-07-12T06:08:07;17.60;91.90
4431;DHT22;2228;48.140;11.488;2022-07-12T06:10:34;17.60;98.30
4431;DHT22;2228;48.140;11.488;2022-07-12T06:13:01;17.70;95.10
4431;DHT22;2228;48.140;11.488;2022-07-12T06:15:30;17.80;94.30
4431;DHT22;2228;48.140;11.488;2022-07-12T06:17:57;17.80;82.40
4431;DHT22;2228;48.140;11.488;2022-07-12T06:20:24;17.80;85.20
4431;DHT22;2228;48.140;11.488;2022-07-12T06:22:51;17.90;84.40
4431;DHT22;2228;48.140;11.488;2022-07-12T06:25:18;18.00;90.20
4431;DHT22;2228;48.140;11.488;2022-07-12T06:27:45;18.10;79.60
4431;DHT22;2228;48.140;11.488;2022-07-12T06:30:15;18.30;67.00
4431;DHT22;2228;48.140;11.488;2022-07-12T06:32:45;18.40;62.00
4431;DHT22;2228;48.140;11.488;2022-07-12T06:35:12;18.50;47.10
4431;DHT22;2228;48.140;11.488;2022-07-12T06:37:39;18.60;44.20
4431;DHT22;2228;48.140;11.488;2022-07-12T06:40:07;18.70;30.00
4431;DHT22;2228;48.140;11.488;2022-07-12T06:42:35;18.70;29.20
4431;DHT22;2228;48.140;11.488;2022-07-12T06:45:02;18.80;18.30
4431;DHT22;2228;48.140;11.488;2022-07-12T06:47:30;18.90;14.40
4431;DHT22;2228;48.140;11.488;2022-07-12T06:49:58;19.00;3.40
4431;DHT22;2228;48.140;11.488;2022-07-12T06:52:25;19.00;1.00
4431;DHT22;2228;48.140;11.488;2022-07-12T06:54:52;19.10;1.00
4431;DHT22;2228;48.140;11.488;2022-07-12T06:57:19;19.20;1.00
4431;DHT22;2228;48.140;11.488;2022-07-12T06:59:46;19.30;1.00
4431;DHT22;2228;48.140;11.488;2022-07-12T07:02:13;19.40;1.00
4431;DHT22;2228;48.140;11.488;2022-07-12T07:04:40;19.50;1.00
4431;DHT22;2228;48.140;11.488;2022-07-12T07:07:09;19.60;1.00
4431;DHT22;2228;48.140;11.488;2022-07-12T07:09:36;19.60;1.00
4431;DHT22;2228;48.140;11.488;2022-07-12T07:12:03;19.80;1.00
4431;DHT22;2228;48.140;11.488;2022-07-12T07:14:30;20.10;1.00
4431;DHT22;2228;48.140;11.488;2022-07-12T07:16:57;20.50;1.00
4431;DHT22;2228;48.140;11.488;2022-07-12T07:19:24;20.70;1.00
4431;DHT22;2228;48.140;11.488;2022-07-12T07:21:52;20.60;1.00
4431;DHT22;2228;48.140;11.488;2022-07-12T07:24:21;20.60;1.00
4431;DHT22;2228;48.140;11.488;2022-07-12T07:26:48;20.70;1.00
4431;DHT22;2228;48.140;11.488;2022-07-12T07:29:14;20.70;1.00
4431;DHT22;2228;48.140;11.488;2022-07-12T07:31:59;20.90;1.00
4431;DHT22;2228;48.140;11.488;2022-07-12T07:34:27;21.20;1.00
4431;DHT22;2228;48.140;11.488;2022-07-12T07:36:53;21.30;1.00
4431;DHT22;2228;48.140;11.488;2022-07-12T07:39:22;21.20;1.00
4431;DHT22;2228;48.140;11.488;2022-07-12T07:41:48;21.00;1.00
4431;DHT22;2228;48.140;11.488;2022-07-12T07:44:15;21.10;1.00
4431;DHT22;2228;48.140;11.488;2022-07-12T07:46:42;21.40;1.00
4431;DHT22;2228;48.140;11.488;2022-07-12T07:49:09;21.60;1.00
4431;DHT22;2228;48.140;11.488;2022-07-12T07:51:36;21.80;1.00
4431;DHT22;2228;48.140;11.488;2022-07-12T07:54:02;21.60;1.00
4431;DHT22;2228;48.140;11.488;2022-07-12T07:56:31;21.50;1.00
4431;DHT22;2228;48.140;11.488;2022-07-12T07:58:57;21.60;1.00
4431;DHT22;2228;48.140;11.488;2022-07-12T08:01:24;21.70;1.00
4431;DHT22;2228;48.140;11.488;2022-07-12T08:04:05;21.50;1.00
4431;DHT22;2228;48.140;11.488;2022-07-12T08:06:32;21.60;1.00
4431;DHT22;2228;48.140;11.488;2022-07-12T08:08:59;22.00;1.00
4431;DHT22;2228;48.140;11.488;2022-07-12T08:11:28;22.50;1.00
4431;DHT22;2228;48.140;11.488;2022-07-12T08:13:56;22.80;1.00
4431;DHT22;2228;48.140;11.488;2022-07-12T08:16:23;22.50;1.00
4431;DHT22;2228;48.140;11.488;2022-07-12T08:18:49;22.60;1.00
4431;DHT22;2228;48.140;11.488;2022-07-12T08:21:16;22.70;1.00
4431;DHT22;2228;48.140;11.488;2022-07-12T08:23:43;22.80;1.00
4431;DHT22;2228;48.140;11.488;2022-07-12T08:26:10;22.50;1.00
4431;DHT22;2228;48.140;11.488;2022-07-12T08:28:39;22.50;1.00
4431;DHT22;2228;48.140;11.488;2022-07-12T08:31:07;23.00;1.00
4431;DHT22;2228;48.140;11.488;2022-07-12T08:33:34;22.80;1.00
4431;DHT22;2228;48.140;11.488;2022-07-12T08:36:00;22.90;1.00
4431;DHT22;2228;48.140;11.488;2022-07-12T08:38:27;23.00;1.00
4431;DHT22;2228;48.140;11.488;2022-07-12T08:40:56;22.90;1.00
4431;DHT22;2228;48.140;11.488;2022-07-12T08:43:23;22.90;1.00
4431;DHT22;2228;48.140;11.488;2022-07-12T08:45:50;23.20;1.00
4431;DHT22;2228;48.140;11.488;2022-07-12T08:48:18;23.50;1.00
4431;DHT22;2228;48.140;11.488;2022-07-12T08:51:00;23.60;1.00
4431;DHT22;2228;48.140;11.488;2022-07-12T08:53:27;23.20;1.00
4431;DHT22;2228;48.140;11.488;2022-07-12T08:55:54;23.10;1.00
4431;DHT22;2228;48.140;11.488;2022-07-12T08:58:20;23.40;1.00
4431;DHT22;2228;48.140;11.488;2022-07-12T09:00:47;23.80;1.00
4431;DHT22;2228;48.140;11.488;2022-07-12T09:03:14;23.50;1.00
4431;DHT22;2228;48.140;11.488;2022-07-12T09:05:47;23.60;1.00
4431;DHT22;2228;48.140;11.488;2022-07-12T09:08:16;23.50;1.00
4431;DHT22;2228;48.140;11.488;2022-07-12T09:10:55;23.60;1.00
4431;DHT22;2228;48.140;11.488;2022-07-12T09:13:45;23.90;1.00
4431;DHT22;2228;48.140;11.488;2022-07-12T09:16:13;23.80;1.00
4431;DHT22;2228;48.140;11.488;2022-07-12T09:18:40;23.80;1.00
4431;DHT22;2228;48.140;11.488;2022-07-12T09:21:08;24.30;1.00
4431;DHT22;2228;48.140;11.488;2022-07-12T09:23:35;24.90;1.00
4431;DHT22;2228;48.140;11.488;2022-07-12T09:26:07;24.70;1.00
4431;DHT22;2228;48.140;11.488;2022-07-12T09:28:34;24.80;1.00
4431;DHT22;2228;48.140;11.488;2022-07-12T09:31:01;24.10;1.00
4431;DHT22;2228;48.140;11.488;2022-07-12T09:33:28;24.00;1.00
4431;DHT22;2228;48.140;11.488;2022-07-12T09:36:14;23.90;1.00
4431;DHT22;2228;48.140;11.488;2022-07-12T09:38:50;23.30;1.00
4431;DHT22;2228;48.140;11.488;2022-07-12T09:41:19;23.30;1.00
4431;DHT22;2228;48.140;11.488;2022-07-12T09:43:47;23.30;1.00
4431;DHT22;2228;48.140;11.488;2022-07-12T09:46:14;23.40;1.00
4431;DHT22;2228;48.140;11.488;2022-07-12T09:48:42;23.40;1.00
4431;DHT22;2228;48.140;11.488;2022-07-12T09:51:13;23.50;1.00
4431;DHT22;2228;48.140;11.488;2022-07-12T09:53:43;23.90;1.00
4431;DHT22;2228;48.140;11.488;2022-07-12T09:56:12;24.20;1.00
4431;DHT22;2228;48.140;11.488;2022-07-12T09:58:41;24.20;1.00
4431;DHT22;2228;48.140;11.488;2022-07-12T10:01:10;24.40;1.00
4431;DHT22;2228;48.140;11.488;2022-07-12T10:03:40;24.40;1.00
4431;DHT22;2228;48.140;11.488;2022-07-12T10:06:08;24.30;1.00
4431;DHT22;2228;48.140;11.488;2022-07-12T10:08:36;24.30;1.00
4431;DHT22;2228;48.140;11.488;2022-07-12T10:11:05;24.20;1.00
4431;DHT22;2228;48.140;11.488;2022-07-12T10:13:33;24.30;1.00
4431;DHT22;2228;48.140;11.488;2022-07-12T10:16:02;24.30;1.00
4431;DHT22;2228;48.140;11.488;2022-07-12T10:18:29;24.90;1.00
4431;DHT22;2228;48.140;11.488;2022-07-12T10:20:56;25.30;1.00
4431;DHT22;2228;48.140;11.488;2022-07-12T10:23:33;25.70;1.00
4431;DHT22;2228;48.140;11.488;2022-07-12T10:26:23;25.60;1.00
4431;DHT22;2228;48.140;11.488;2022-07-12T10:29:00;25.20;1.00
4431;DHT22;2228;48.140;11.488;2022-07-12T10:31:29;24.50;1.00
4431;DHT22;2228;48.140;11.488;2022-07-12T10:34:08;23.90;1.00
4431;DHT22;2228;48.140;11.488;2022-07-12T10:39:38;24.40;1.00
4431;DHT22;2228;48.140;11.488;2022-07-12T10:42:16;25.20;1.00
4431;DHT22;2228;48.140;11.488;2022-07-12T10:44:47;25.80;1.00
4431;DHT22;2228;48.140;11.488;2022-07-12T10:47:15;26.10;1.00
4431;DHT22;2228;48.140;11.488;2022-07-12T10:49:48;26.60;1.00
4431;DHT22;2228;48.140;11.488;2022-07-12T10:52:17;26.80;1.00
4431;DHT22;2228;48.140;11.488;2022-07-12T10:54:47;26.50;1.00
4431;DHT22;2228;48.140;11.488;2022-07-12T10:57:39;26.00;1.00
4431;DHT22;2228;48.140;11.488;2022-07-12T11:00:09;25.60;1.00
4431;DHT22;2228;48.140;11.488;2022-07-12T11:02:36;24.70;1.00
4431;DHT22;2228;48.140;11.488;2022-07-12T11:05:04;24.90;1.00
4431;DHT22;2228;48.140;11.488;2022-07-12T11:07:31;26.00;1.00
4431;DHT22;2228;48.140;11.488;2022-07-12T11:09:58;26.20;1.00
4431;DHT22;2228;48.140;11.488;2022-07-12T11:12:27;26.50;1.00
4431;DHT22;2228;48.140;11.488;2022-07-12T11:14:57;26.90;1.00
4431;DHT22;2228;48.140;11.488;2022-07-12T11:17:25;27.60;1.00
4431;DHT22;2228;48.140;11.488;2022-07-12T11:20:03;28.30;1.00
4431;DHT22;2228;48.140;11.488;2022-07-12T11:22:31;28.60;1.00
4431;DHT22;2228;48.140;11.488;2022-07-12T11:24:58;28.40;1.00
4431;DHT22;2228;48.140;11.488;2022-07-12T11:27:26;27.90;1.00
4431;DHT22;2228;48.140;11.488;2022-07-12T11:29:58;27.40;1.00
4431;DHT22;2228;48.140;11.488;2022-07-12T11:32:35;26.50;1.00
4431;DHT22;2228;48.140;11.488;2022-07-12T11:35:04;26.20;1.00
4431;DHT22;2228;48.140;11.488;2022-07-12T11:37:31;26.20;1.00
4431;DHT22;2228;48.140;11.488;2022-07-12T11:39:58;26.10;1.00
4431;DHT22;2228;48.140;11.488;2022-07-12T11:42:25;25.70;1.00
4431;DHT22;2228;48.140;11.488;2022-07-12T11:44:52;25.60;1.00
4431;DHT22;2228;48.140;11.488;2022-07-12T11:47:21;25.70;1.00
4431;DHT22;2228;48.140;11.488;2022-07-12T11:49:50;26.30;1.00
4431;DHT22;2228;48.140;11.488;2022-07-12T11:52:18;27.40;1.00
4431;DHT22;2228;48.140;11.488;2022-07-12T11:54:46;28.10;1.00
4431;DHT22;2228;48.140;11.488;2022-07-12T11:57:14;28.20;1.00
4431;DHT22;2228;48.140;11.488;2022-07-12T11:59:41;27.80;1.00
4431;DHT22;2228;48.140;11.488;2022-07-12T12:02:10;26.80;1.00
4431;DHT22;2228;48.140;11.488;2022-07-12T12:04:48;26.50;1.00
4431;DHT22;2228;48.140;11.488;2022-07-12T12:07:16;26.80;1.00
4431;DHT22;2228;48.140;11.488;2022-07-12T12:10:03;27.20;1.00
4431;DHT22;2228;48.140;11.488;2022-07-12T12:12:37;27.40;1.00
4431;DHT22;2228;48.140;11.488;2022-07-12T12:15:06;27.00;1.00
4431;DHT22;2228;48.140;11.488;2022-07-12T12:17:34;28.10;1.00
4431;DHT22;2228;48.140;11.488;2022-07-12T12:20:16;28.80;1.00
4431;DHT22;2228;48.140;11.488;2022-07-12T12:22:45;29.40;1.00
4431;DHT22;2228;48.140;11.488;2022-07-12T12:25:13;29.90;1.00
4431;DHT22;2228;48.140;11.488;2022-07-12T12:27:42;30.30;1.00
4431;DHT22;2228;48.140;11.488;2022-07-12T12:30:10;30.30;1.00
4431;DHT22;2228;48.140;11.488;2022-07-12T12:32:47;30.30;1.00
4431;DHT22;2228;48.140;11.488;2022-07-12T12:35:17;29.80;1.00
4431;DHT22;2228;48.140;11.488;2022-07-12T12:37:51;29.50;1.00
4431;DHT22;2228;48.140;11.488;2022-07-12T12:40:20;29.40;1.00
4431;DHT22;2228;48.140;11.488;2022-07-12T12:42:47;29.50;1.00
4431;DHT22;2228;48.140;11.488;2022-07-12T12:45:18;28.60;1.00
4431;DHT22;2228;48.140;11.488;2022-07-12T12:47:56;28.30;1.00
4431;DHT22;2228;48.140;11.488;2022-07-12T12:50:38;29.10;1.00
4431;DHT22;2228;48.140;11.488;2022-07-12T12:53:11;30.10;1.00
4431;DHT22;2228;48.140;11.488;2022-07-12T12:55:39;30.50;1.00
4431;DHT22;2228;48.140;11.488;2022-07-12T12:58:07;31.40;1.00
4431;DHT22;2228;48.140;11.488;2022-07-12T13:00:35;31.90;1.00
4431;DHT22;2228;48.140;11.488;2022-07-12T13:03:03;32.00;1.00
4431;DHT22;2228;48.140;11.488;2022-07-12T13:05:30;32.20;1.00
4431;DHT22;2228;48.140;11.488;2022-07-12T13:07:59;32.20;1.00
4431;DHT22;2228;48.140;11.488;2022-07-12T13:10:27;31.20;1.00
4431;DHT22;2228;48.140;11.488;2022-07-12T13:12:54;31.00;1.00
4431;DHT22;2228;48.140;11.488;2022-07-12T13:15:22;30.70;1.00
4431;DHT22;2228;48.140;11.488;2022-07-12T13:17:48;29.90;1.00
4431;DHT22;2228;48.140;11.488;2022-07-12T13:20:15;30.20;1.00
4431;DHT22;2228;48.140;11.488;2022-07-12T13:22:42;30.40;1.00
4431;DHT22;2228;48.140;11.488;2022-07-12T13:25:12;29.80;1.00
4431;DHT22;2228;48.140;11.488;2022-07-12T13:27:41;29.40;1.00
4431;DHT22;2228;48.140;11.488;2022-07-12T13:30:10;29.20;1.00
4431;DHT22;2228;48.140;11.488;2022-07-12T13:32:38;29.10;1.00
4431;DHT22;2228;48.140;11.488;2022-07-12T13:35:07;29.10;1.00
4431;DHT22;2228;48.140;11.488;2022-07-12T13:37:35;29.30;1.00
4431;DHT22;2228;48.140;11.488;2022-07-12T13:40:03;29.90;1.00
4431;DHT22;2228;48.140;11.488;2022-07-12T13:42:46;30.30;1.00
4431;DHT22;2228;48.140;11.488;2022-07-12T13:45:16;31.20;1.00
4431;DHT22;2228;48.140;11.488;2022-07-12T13:47:44;32.20;1.00
4431;DHT22;2228;48.140;11.488;2022-07-12T13:50:13;32.50;1.00
4431;DHT22;2228;48.140;11.488;2022-07-12T13:52:40;32.70;1.00
4431;DHT22;2228;48.140;11.488;2022-07-12T13:55:09;32.80;1.00
4431;DHT22;2228;48.140;11.488;2022-07-12T13:57:37;32.30;1.00
4431;DHT22;2228;48.140;11.488;2022-07-12T14:00:08;31.80;1.00
4431;DHT22;2228;48.140;11.488;2022-07-12T14:02:36;31.70;1.00
4431;DHT22;2228;48.140;11.488;2022-07-12T14:05:05;31.30;1.00
4431;DHT22;2228;48.140;11.488;2022-07-12T14:07:32;31.10;1.00
4431;DHT22;2228;48.140;11.488;2022-07-12T14:09:59;31.60;1.00
4431;DHT22;2228;48.140;11.488;2022-07-12T14:12:27;32.20;1.00
4431;DHT22;2228;48.140;11.488;2022-07-12T14:14:54;32.10;1.00
4431;DHT22;2228;48.140;11.488;2022-07-12T14:17:44;31.90;1.00
4431;DHT22;2228;48.140;11.488;2022-07-12T14:20:12;32.20;1.00
4431;DHT22;2228;48.140;11.488;2022-07-12T14:22:40;32.30;1.00
4431;DHT22;2228;48.140;11.488;2022-07-12T14:25:08;32.20;1.00
4431;DHT22;2228;48.140;11.488;2022-07-12T14:27:36;31.60;1.00
4431;DHT22;2228;48.140;11.488;2022-07-12T14:30:05;30.90;1.00
4431;DHT22;2228;48.140;11.488;2022-07-12T14:32:32;30.50;1.00
4431;DHT22;2228;48.140;11.488;2022-07-12T14:35:01;30.80;1.00
4431;DHT22;2228;48.140;11.488;2022-07-12T14:37:28;31.30;1.00
4431;DHT22;2228;48.140;11.488;2022-07-12T14:39:55;31.60;1.00
4431;DHT22;2228;48.140;11.488;2022-07-12T14:42:22;32.00;1.00
4431;DHT22;2228;48.140;11.488;2022-07-12T14:44:48;32.90;1.00
4431;DHT22;2228;48.140;11.488;2022-07-12T14:47:15;33.50;1.00
4431;DHT22;2228;48.140;11.488;2022-07-12T14:49:44;32.80;1.00
4431;DHT22;2228;48.140;11.488;2022-07-12T14:52:13;32.60;1.00
4431;DHT22;2228;48.140;11.488;2022-07-12T14:54:39;33.20;1.00
4431;DHT22;2228;48.140;11.488;2022-07-12T14:57:06;33.00;1.00
4431;DHT22;2228;48.140;11.488;2022-07-12T14:59:33;32.60;1.00
4431;DHT22;2228;48.140;11.488;2022-07-12T15:02:01;32.00;1.00
4431;DHT22;2228;48.140;11.488;2022-07-12T15:04:28;31.60;1.00
4431;DHT22;2228;48.140;11.488;2022-07-12T15:06:55;31.20;1.00
4431;DHT22;2228;48.140;11.488;2022-07-12T15:09:23;29.70;1.00
4431;DHT22;2228;48.140;11.488;2022-07-12T15:11:50;29.40;1.00
4431;DHT22;2228;48.140;11.488;2022-07-12T15:14:17;30.30;1.00
4431;DHT22;2228;48.140;11.488;2022-07-12T15:16:43;31.50;1.00
4431;DHT22;2228;48.140;11.488;2022-07-12T15:19:10;31.60;1.00
4431;DHT22;2228;48.140;11.488;2022-07-12T15:21:37;31.90;1.00
4431;DHT22;2228;48.140;11.488;2022-07-12T15:24:04;32.40;1.00
4431;DHT22;2228;48.140;11.488;2022-07-12T15:26:33;33.00;1.00
4431;DHT22;2228;48.140;11.488;2022-07-12T15:29:01;32.60;1.00
4431;DHT22;2228;48.140;11.488;2022-07-12T15:31:29;32.60;1.00
4431;DHT22;2228;48.140;11.488;2022-07-12T15:33:57;33.00;1.00
4431;DHT22;2228;48.140;11.488;2022-07-12T15:36:24;34.20;99.90
4431;DHT22;2228;48.140;11.488;2022-07-12T15:38:51;35.30;99.90
4431;DHT22;2228;48.140;11.488;2022-07-12T15:41:19;36.40;99.90
4431;DHT22;2228;48.140;11.488;2022-07-12T15:43:47;35.30;99.90
4431;DHT22;2228;48.140;11.488;2022-07-12T15:46:14;35.10;99.90
4431;DHT22;2228;48.140;11.488;2022-07-12T15:48:41;35.70;99.90
4431;DHT22;2228;48.140;11.488;2022-07-12T15:51:08;36.50;99.90
4431;DHT22;2228;48.140;11.488;2022-07-12T15:53:36;37.10;99.90
4431;DHT22;2228;48.140;11.488;2022-07-12T15:56:04;36.80;99.90
4431;DHT22;2228;48.140;11.488;2022-07-12T15:58:32;36.80;99.90
4431;DHT22;2228;48.140;11.488;2022-07-12T16:01:02;36.20;99.90
4431;DHT22;2228;48.140;11.488;2022-07-12T16:03:29;35.40;99.90
4431;DHT22;2228;48.140;11.488;2022-07-12T16:05:58;34.50;99.90